sensor_id;sensor_type;location;lat;lon;timestamp;temperature;humidity
64501;DHT22;50874;24.150;-110.320;2022-09-02T00:01:30;32.80;99.90
64501;DHT22;50874;24.150;-110.320;2022-09-02T00:04:05;32.80;99.90
64501;DHT22;50874;24.150;-110.320;2022-09-02T00:06:32;32.80;99.90
64501;DHT22;50874;24.150;-110.320;2022-09-02T00:08:59;32.80;99.90
64501;DHT22;50874;24.150;-110.320;2022-09-02T00:11:29;32.70;99.90
64501;DHT22;50874;24.150;-110.320;2022-09-02T00:13:56;32.70;99.90
64501;DHT22;50874;24.150;-110.320;2022-09-02T00:16:25;32.70;99.90
64501;DHT22;50874;24.150;-110.320;2022-09-02T00:18:52;32.80;99.90
64501;DHT22;50874;24.150;-110.320;2022-09-02T00:21:20;32.70;99.90
64501;DHT22;50874;24.150;-110.320;2022-09-02T00:23:47;32.60;99.90
64501;DHT22;50874;24.150;-110.320;2022-09-02T00:26:14;32.60;99.90
64501;DHT22;50874;24.150;-110.320;2022-09-02T00:28:41;32.60;99.90
64501;DHT22;50874;24.150;-110.320;2022-09-02T00:31:08;32.60;99.90
64501;DHT22;50874;24.150;-110.320;2022-09-02T00:33:35;32.50;99.90
64501;DHT22;50874;24.150;-110.320;2022-09-02T00:36:02;32.50;99.90
64501;DHT22;50874;24.150;-110.320;2022-09-02T00:38:30;32.50;99.50
64501;DHT22;50874;24.150;-110.320;2022-09-02T00:40:59;32.40;99.30
64501;DHT22;50874;24.150;-110.320;2022-09-02T00:43:49;32.40;99.30
64501;DHT22;50874;24.150;-110.320;2022-09-02T00:46:19;32.50;99.30
64501;DHT22;50874;24.150;-110.320;2022-09-02T00:49:17;32.50;99.20
64501;DHT22;50874;24.150;-110.320;2022-09-02T00:54:35;32.40;99.60
64501;DHT22;50874;24.150;-110.320;2022-09-02T00:57:07;32.30;99.80
64501;DHT22;50874;24.150;-110.320;2022-09-02T01:02:39;32.10;99.90
64501;DHT22;50874;24.150;-110.320;2022-09-02T01:05:09;32.10;99.90
64501;DHT22;50874;24.150;-110.320;2022-09-02T01:07:37;32.00;99.90
64501;DHT22;50874;24.150;-110.320;2022-09-02T01:10:06;32.00;99.90
64501;DHT22;50874;24.150;-110.320;2022-09-02T01:12:34;31.80;99.90
64501;DHT22;50874;24.150;-110.320;2022-09-02T01:15:01;31.80;99.90
64501;DHT22;50874;24.150;-110.320;2022-09-02T01:17:28;31.70;99.90
64501;DHT22;50874;24.150;-110.320;2022-09-02T01:20:04;31.60;99.90
64501;DHT22;50874;24.150;-110.320;2022-09-02T01:22:32;31.50;99.90
64501;DHT22;50874;24.150;-110.320;2022-09-02T01:25:20;31.40;99.90
64501;DHT22;50874;24.150;-110.320;2022-09-02T01:27:47;31.40;99.90
64501;DHT22;50874;24.150;-110.320;2022-09-02T01:30:18;31.40;99.90
64501;DHT22;50874;24.150;-110.320;2022-09-02T01:32:45;31.30;99.90
64501;DHT22;50874;24.150;-110.320;2022-09-02T01:35:11;31.40;99.90
64501;DHT22;50874;24.150;-110.320;2022-09-02T01:37:39;31.40;99.90
64501;DHT22;50874;24.150;-110.320;2022-09-02T01:40:07;31.40;99.90
64501;DHT22;50874;24.150;-110.320;2022-09-02T01:42:34;31.40;99.90
64501;DHT22;50874;24.150;-110.320;2022-09-02T01:45:01;31.40;99.90
64501;DHT22;50874;24.150;-110.320;2022-09-02T01:47:27;31.40;99.90
64501;DHT22;50874;24.150;-110.320;2022-09-02T01:49:54;31.40;99.90
64501;DHT22;50874;24.150;-110.320;2022-09-02T01:52:22;31.30;99.90
64501;DHT22;50874;24.150;-110.320;2022-09-02T01:54:49;31.40;99.90
64501;DHT22;50874;24.150;-110.320;2022-09-02T01:57:16;31.30;99.90
64501;DHT22;50874;24.150;-110.320;2022-09-02T01:59:43;31.20;99.90
64501;DHT22;50874;24.150;-110.320;2022-09-02T02:02:12;31.20;99.90
64501;DHT22;50874;24.150;-110.320;2022-09-02T02:04:38;31.20;99.90
64501;DHT22;50874;24.150;-110.320;2022-09-02T02:07:05;31.20;99.90
64501;DHT22;50874;24.150;-110.320;2022-09-02T02:09:32;31.20;99.90
64501;DHT22;50874;24.150;-110.320;2022-09-02T02:11:58;31.20;99.90
64501;DHT22;50874;24.150;-110.320;2022-09-02T02:14:25;31.10;99.90
64501;DHT22;50874;24.150;-110.320;2022-09-02T02:16:51;31.10;99.90
64501;DHT22;50874;24.150;-110.320;2022-09-02T02:19:18;31.10;99.90
64501;DHT22;50874;24.150;-110.320;2022-09-02T02:21:44;31.00;99.90
64501;DHT22;50874;24.150;-110.320;2022-09-02T02:24:11;31.00;99.90
64501;DHT22;50874;24.150;-110.320;2022-09-02T02:26:37;30.90;99.90
64501;DHT22;50874;24.150;-110.320;2022-09-02T02:29:04;30.90;99.90
64501;DHT22;50874;24.150;-110.320;2022-09-02T02:31:30;30.90;99.90
64501;DHT22;50874;24.150;-110.320;2022-09-02T02:33:57;30.80;99.90
64501;DHT22;50874;24.150;-110.320;2022-09-02T02:36:25;30.80;99.90
64501;DHT22;50874;24.150;-110.320;2022-09-02T02:38:51;30.80;99.90
64501;DHT22;50874;24.150;-110.320;2022-09-02T02:41:18;30.80;99.90
64501;DHT22;50874;24.150;-110.320;2022-09-02T02:43:44;30.80;99.90
64501;DHT22;50874;24.150;-110.320;2022-09-02T02:46:11;30.70;99.90
64501;DHT22;50874;24.150;-110.320;2022-09-02T02:48:38;30.70;99.90
64501;DHT22;50874;24.150;-110.320;2022-09-02T02:51:06;30.60;99.90
64501;DHT22;50874;24.150;-110.320;2022-09-02T02:53:33;30.60;99.90
64501;DHT22;50874;24.150;-110.320;2022-09-02T02:56:01;30.60;99.90
64501;DHT22;50874;24.150;-110.320;2022-09-02T02:58:28;30.60;99.90
64501;DHT22;50874;24.150;-110.320;2022-09-02T03:00:56;30.60;99.90
64501;DHT22;50874;24.150;-110.320;2022-09-02T03:03:23;30.60;99.90
64501;DHT22;50874;24.150;-110.320;2022-09-02T03:05:50;30.60;99.90
64501;DHT22;50874;24.150;-110.320;2022-09-02T03:08:18;30.60;99.90
64501;DHT22;50874;24.150;-110.320;2022-09-02T03:10:48;30.40;99.90
64501;DHT22;50874;24.150;-110.320;2022-09-02T03:13:20;30.30;99.90
64501;DHT22;50874;24.150;-110.320;2022-09-02T03:15:47;30.30;99.90
64501;DHT22;50874;24.150;-110.320;2022-09-02T03:18:14;30.20;99.90
64501;DHT22;50874;24.150;-110.320;2022-09-02T03:20:41;30.10;99.90
64501;DHT22;50874;24.150;-110.320;2022-09-02T03:23:08;30.10;99.90
64501;DHT22;50874;24.150;-110.320;2022-09-02T03:25:35;30.10;99.90
64501;DHT22;50874;24.150;-110.320;2022-09-02T03:28:02;30.20;99.90
64501;DHT22;50874;24.150;-110.320;2022-09-02T03:30:30;30.10;99.90
64501;DHT22;50874;24.150;-110.320;2022-09-02T03:32:59;30.00;99.90
64501;DHT22;50874;24.150;-110.320;2022-09-02T03:35:26;29.90;99.90
64501;DHT22;50874;24.150;-110.320;2022-09-02T03:37:53;29.80;99.90
64501;DHT22;50874;24.150;-110.320;2022-09-02T03:40:23;29.60;99.90
64501;DHT22;50874;24.150;-110.320;2022-09-02T03:42:51;29.60;99.90
64501;DHT22;50874;24.150;-110.320;2022-09-02T03:45:19;29.60;99.90
64501;DHT22;50874;24.150;-110.320;2022-09-02T03:47:47;29.60;99.90
64501;DHT22;50874;24.150;-110.320;2022-09-02T03:50:34;29.70;99.90
64501;DHT22;50874;24.150;-110.320;2022-09-02T03:53:01;29.80;99.90
64501;DHT22;50874;24.150;-110.320;2022-09-02T03:55:28;29.80;99.90
64501;DHT22;50874;24.150;-110.320;2022-09-02T03:57:55;29.80;99.90
64501;DHT22;50874;24.150;-110.320;2022-09-02T04:00:23;29.80;99.90
64501;DHT22;50874;24.150;-110.320;2022-09-02T04:02:51;29.80;99.90
64501;DHT22;50874;24.150;-110.320;2022-09-02T04:05:20;29.90;99.90
64501;DHT22;50874;24.150;-110.320;2022-09-02T04:07:47;29.90;99.90
64501;DHT22;50874;24.150;-110.320;2022-09-02T04:10:16;30.00;99.90
64501;DHT22;50874;24.150;-110.320;2022-09-02T04:12:45;30.00;99.90
64501;DHT22;50874;24.150;-110.320;2022-09-02T04:15:12;29.90;99.90
64501;DHT22;50874;24.150;-110.320;2022-09-02T04:17:40;29.90;99.90
64501;DHT22;50874;24.150;-110.320;2022-09-02T04:20:08;30.00;99.90
64501;DHT22;50874;24.150;-110.320;2022-09-02T04:22:35;29.90;99.90
64501;DHT22;50874;24.150;-110.320;2022-09-02T04:25:03;29.90;99.90
64501;DHT22;50874;24.150;-110.320;2022-09-02T04:27:30;29.80;99.90
64501;DHT22;50874;24.150;-110.320;2022-09-02T04:29:57;29.80;99.90
64501;DHT22;50874;24.150;-110.320;2022-09-02T04:32:24;29.70;99.90
64501;DHT22;50874;24.150;-110.320;2022-09-02T04:34:51;29.60;99.90
64501;DHT22;50874;24.150;-110.320;2022-09-02T04:37:18;29.10;99.90
64501;DHT22;50874;24.150;-110.320;2022-09-02T04:39:44;28.50;99.90
64501;DHT22;50874;24.150;-110.320;2022-09-02T04:42:11;28.00;99.90
64501;DHT22;50874;24.150;-110.320;2022-09-02T04:44:37;27.60;99.90
64501;DHT22;50874;24.150;-110.320;2022-09-02T04:47:04;27.40;99.90
64501;DHT22;50874;24.150;-110.320;2022-09-02T04:49:30;27.30;99.90
64501;DHT22;50874;24.150;-110.320;2022-09-02T04:51:58;27.20;99.90
64501;DHT22;50874;24.150;-110.320;2022-09-02T04:54:25;27.10;99.90
64501;DHT22;50874;24.150;-110.320;2022-09-02T04:56:52;27.00;99.90
64501;DHT22;50874;24.150;-110.320;2022-09-02T04:59:19;26.80;99.90
64501;DHT22;50874;24.150;-110.320;2022-09-02T05:01:46;26.70;99.90
64501;DHT22;50874;24.150;-110.320;2022-09-02T05:04:12;26.60;99.90
64501;DHT22;50874;24.150;-110.320;2022-09-02T05:06:39;26.50;99.90
64501;DHT22;50874;24.150;-110.320;2022-09-02T05:09:05;26.50;99.90
64501;DHT22;50874;24.150;-110.320;2022-09-02T05:11:34;26.40;99.90
64501;DHT22;50874;24.150;-110.320;2022-09-02T05:14:02;26.40;99.90
64501;DHT22;50874;24.150;-110.320;2022-09-02T05:16:32;26.40;99.90
64501;DHT22;50874;24.150;-110.320;2022-09-02T05:18:59;26.40;99.90
64501;DHT22;50874;24.150;-110.320;2022-09-02T05:21:25;26.30;99.90
64501;DHT22;50874;24.150;-110.320;2022-09-02T05:23:53;26.30;99.90
64501;DHT22;50874;24.150;-110.320;2022-09-02T05:26:19;26.20;99.90
64501;DHT22;50874;24.150;-110.320;2022-09-02T05:28:46;26.20;99.90
64501;DHT22;50874;24.150;-110.320;2022-09-02T05:31:14;26.10;99.90
64501;DHT22;50874;24.150;-110.320;2022-09-02T05:33:41;26.20;99.90
64501;DHT22;50874;24.150;-110.320;2022-09-02T05:36:11;26.10;99.90
64501;DHT22;50874;24.150;-110.320;2022-09-02T05:38:42;26.10;99.90
64501;DHT22;50874;24.150;-110.320;2022-09-02T05:41:14;26.10;99.90
64501;DHT22;50874;24.150;-110.320;2022-09-02T05:43:42;26.10;99.90
64501;DHT22;50874;24.150;-110.320;2022-09-02T05:46:11;26.10;99.90
64501;DHT22;50874;24.150;-110.320;2022-09-02T05:48:38;26.10;99.90
64501;DHT22;50874;24.150;-110.320;2022-09-02T05:51:24;26.00;99.90
64501;DHT22;50874;24.150;-110.320;2022-09-02T05:53:55;26.00;99.90
64501;DHT22;50874;24.150;-110.320;2022-09-02T05:56:22;26.00;99.90
64501;DHT22;50874;24.150;-110.320;2022-09-02T05:58:50;26.00;99.90
64501;DHT22;50874;24.150;-110.320;2022-09-02T06:01:18;26.00;99.90
64501;DHT22;50874;24.150;-110.320;2022-09-02T06:03:45;26.00;99.90
64501;DHT22;50874;24.150;-110.320;2022-09-02T06:06:12;26.00;99.90
64501;DHT22;50874;24.150;-110.320;2022-09-02T06:08:39;26.10;99.90
64501;DHT22;50874;24.150;-110.320;2022-09-02T06:11:08;26.10;99.90
64501;DHT22;50874;24.150;-110.320;2022-09-02T06:13:39;26.10;99.90
64501;DHT22;50874;24.150;-110.320;2022-09-02T06:16:06;26.10;99.90
64501;DHT22;50874;24.150;-110.320;2022-09-02T06:18:37;26.20;99.90
64501;DHT22;50874;24.150;-110.320;2022-09-02T06:21:05;26.10;99.90
64501;DHT22;50874;24.150;-110.320;2022-09-02T06:23:34;26.10;99.90
64501;DHT22;50874;24.150;-110.320;2022-09-02T06:26:01;26.10;99.90
64501;DHT22;50874;24.150;-110.320;2022-09-02T06:28:28;26.10;99.90
64501;DHT22;50874;24.150;-110.320;2022-09-02T06:30:54;26.00;99.90
64501;DHT22;50874;24.150;-110.320;2022-09-02T06:33:21;26.10;99.90
64501;DHT22;50874;24.150;-110.320;2022-09-02T06:35:47;26.10;99.90
64501;DHT22;50874;24.150;-110.320;2022-09-02T06:38:15;26.10;99.90
64501;DHT22;50874;24.150;-110.320;2022-09-02T06:40:47;26.10;99.90
64501;DHT22;50874;24.150;-110.320;2022-09-02T06:43:14;26.10;99.90
64501;DHT22;50874;24.150;-110.320;2022-09-02T06:45:41;26.10;99.90
64501;DHT22;50874;24.150;-110.320;2022-09-02T06:48:08;26.20;99.90
64501;DHT22;50874;24.150;-110.320;2022-09-02T06:50:43;26.20;99.90
64501;DHT22;50874;24.150;-110.320;2022-09-02T06:53:10;26.30;99.90
64501;DHT22;50874;24.150;-110.320;2022-09-02T06:55:39;26.30;99.90
64501;DHT22;50874;24.150;-110.320;2022-09-02T06:58:06;26.30;99.90
64501;DHT22;50874;24.150;-110.320;2022-09-02T07:00:33;26.30;99.90
64501;DHT22;50874;24.150;-110.320;2022-09-02T07:03:01;26.30;99.90
64501;DHT22;50874;24.150;-110.320;2022-09-02T07:05:46;26.30;99.90
64501;DHT22;50874;24.150;-110.320;2022-09-02T07:08:13;26.30;99.90
64501;DHT22;50874;24.150;-110.320;2022-09-02T07:10:40;26.30;99.90
64501;DHT22;50874;24.150;-110.320;2022-09-02T07:13:07;26.30;99.90
64501;DHT22;50874;24.150;-110.320;2022-09-02T07:15:34;26.30;99.90
64501;DHT22;50874;24.150;-110.320;2022-09-02T07:18:00;26.30;99.90
64501;DHT22;50874;24.150;-110.320;2022-09-02T07:20:28;26.20;99.90
64501;DHT22;50874;24.150;-110.320;2022-09-02T07:22:55;26.30;99.90
64501;DHT22;50874;24.150;-110.320;2022-09-02T07:25:22;26.30;99.90
64501;DHT22;50874;24.150;-110.320;2022-09-02T07:27:49;26.30;99.90
64501;DHT22;50874;24.150;-110.320;2022-09-02T07:30:16;26.30;99.90
64501;DHT22;50874;24.150;-110.320;2022-09-02T07:32:43;26.30;99.90
64501;DHT22;50874;24.150;-110.320;2022-09-02T07:35:10;26.30;99.90
64501;DHT22;50874;24.150;-110.320;2022-09-02T07:37:36;26.30;99.90
64501;DHT22;50874;24.150;-110.320;2022-09-02T07:40:05;26.30;99.90
64501;DHT22;50874;24.150;-110.320;2022-09-02T07:42:32;26.20;99.90
64501;DHT22;50874;24.150;-110.320;2022-09-02T07:44:59;26.20;99.90
64501;DHT22;50874;24.150;-110.320;2022-09-02T07:47:26;26.20;99.90
64501;DHT22;50874;24.150;-110.320;2022-09-02T07:49:52;26.20;99.90
64501;DHT22;50874;24.150;-110.320;2022-09-02T07:52:19;26.30;99.90
64501;DHT22;50874;24.150;-110.320;2022-09-02T07:54:45;26.30;99.90
64501;DHT22;50874;24.150;-110.320;2022-09-02T07:57:12;26.40;99.90
64501;DHT22;50874;24.150;-110.320;2022-09-02T07:59:38;26.40;99.90
64501;DHT22;50874;24.150;-110.320;2022-09-02T08:02:04;26.40;99.90
64501;DHT22;50874;24.150;-110.320;2022-09-02T08:04:31;26.40;99.90
64501;DHT22;50874;24.150;-110.320;2022-09-02T08:06:57;26.40;99.90
64501;DHT22;50874;24.150;-110.320;2022-09-02T08:09:24;26.30;99.90
64501;DHT22;50874;24.150;-110.320;2022-09-02T08:11:51;26.30;99.90
64501;DHT22;50874;24.150;-110.320;2022-09-02T08:14:22;26.30;99.90
64501;DHT22;50874;24.150;-110.320;2022-09-02T08:16:52;26.30;99.90
64501;DHT22;50874;24.150;-110.320;2022-09-02T08:19:19;26.20;99.90
64501;DHT22;50874;24.150;-110.320;2022-09-02T08:21:46;26.30;99.90
64501;DHT22;50874;24.150;-110.320;2022-09-02T08:24:12;26.30;99.90
64501;DHT22;50874;24.150;-110.320;2022-09-02T08:26:39;26.20;99.90
64501;DHT22;50874;24.150;-110.320;2022-09-02T08:29:07;26.30;99.90
64501;DHT22;50874;24.150;-110.320;2022-09-02T08:31:36;26.30;99.90
64501;DHT22;50874;24.150;-110.320;2022-09-02T08:34:03;26.30;99.90
64501;DHT22;50874;24.150;-110.320;2022-09-02T08:36:29;26.30;99.90
64501;DHT22;50874;24.150;-110.320;2022-09-02T08:38:56;26.30;99.90
64501;DHT22;50874;24.150;-110.320;2022-09-02T08:41:26;26.50;99.90
64501;DHT22;50874;24.150;-110.320;2022-09-02T08:43:57;26.50;99.90
64501;DHT22;50874;24.150;-110.320;2022-09-02T08:46:27;26.40;99.90
64501;DHT22;50874;24.150;-110.320;2022-09-02T08:49:10;26.40;99.90
64501;DHT22;50874;24.150;-110.320;2022-09-02T08:51:49;26.40;99.90
64501;DHT22;50874;24.150;-110.320;2022-09-02T08:54:56;26.40;99.90
64501;DHT22;50874;24.150;-110.320;2022-09-02T08:57:23;26.40;99.90
64501;DHT22;50874;24.150;-110.320;2022-09-02T08:59:54;26.50;99.90
64501;DHT22;50874;24.150;-110.320;2022-09-02T09:02:41;26.60;99.90
64501;DHT22;50874;24.150;-110.320;2022-09-02T09:05:22;26.50;99.90
64501;DHT22;50874;24.150;-110.320;2022-09-02T09:14:01;27.10;99.90
64501;DHT22;50874;24.150;-110.320;2022-09-02T09:19:20;27.00;99.90
64501;DHT22;50874;24.150;-110.320;2022-09-02T09:21:47;27.00;99.90
64501;DHT22;50874;24.150;-110.320;2022-09-02T09:24:24;27.10;99.90
64501;DHT22;50874;24.150;-110.320;2022-09-02T09:26:53;27.10;99.90
64501;DHT22;50874;24.150;-110.320;2022-09-02T09:29:20;27.10;99.90
64501;DHT22;50874;24.150;-110.320;2022-09-02T09:31:56;27.30;99.90
64501;DHT22;50874;24.150;-110.320;2022-09-02T09:34:23;27.30;99.90
64501;DHT22;50874;24.150;-110.320;2022-09-02T09:36:54;27.40;99.90
64501;DHT22;50874;24.150;-110.320;2022-09-02T09:39:27;27.60;99.90
64501;DHT22;50874;24.150;-110.320;2022-09-02T09:41:57;27.50;99.90
64501;DHT22;50874;24.150;-110.320;2022-09-02T09:44:38;27.50;99.90
64501;DHT22;50874;24.150;-110.320;2022-09-02T09:47:07;27.50;99.90
64501;DHT22;50874;24.150;-110.320;2022-09-02T09:49:35;27.40;99.90
64501;DHT22;50874;24.150;-110.320;2022-09-02T09:52:03;27.30;99.90
64501;DHT22;50874;24.150;-110.320;2022-09-02T09:54:29;27.30;99.90
64501;DHT22;50874;24.150;-110.320;2022-09-02T09:57:13;27.10;99.90
64501;DHT22;50874;24.150;-110.320;2022-09-02T09:59:43;27.00;99.90
64501;DHT22;50874;24.150;-110.320;2022-09-02T10:02:23;26.70;99.90
64501;DHT22;50874;24.150;-110.320;2022-09-02T10:05:15;26.50;99.90
64501;DHT22;50874;24.150;-110.320;2022-09-02T10:07:42;26.40;99.90
64501;DHT22;50874;24.150;-110.320;2022-09-02T10:10:20;26.30;99.90
64501;DHT22;50874;24.150;-110.320;2022-09-02T10:12:50;26.10;99.90
64501;DHT22;50874;24.150;-110.320;2022-09-02T10:15:33;26.00;99.90
64501;DHT22;50874;24.150;-110.320;2022-09-02T10:26:15;25.20;99.90
64501;DHT22;50874;24.150;-110.320;2022-09-02T10:34:44;24.90;99.90
64501;DHT22;50874;24.150;-110.320;2022-09-02T10:40:07;24.80;99.90
64501;DHT22;50874;24.150;-110.320;2022-09-02T10:43:05;24.80;99.90
64501;DHT22;50874;24.150;-110.320;2022-09-02T10:45:45;24.80;99.90
64501;DHT22;50874;24.150;-110.320;2022-09-02T10:48:52;24.70;99.90
64501;DHT22;50874;24.150;-110.320;2022-09-02T10:57:28;24.70;99.90
64501;DHT22;50874;24.150;-110.320;2022-09-02T11:00:36;24.70;99.90
64501;DHT22;50874;24.150;-110.320;2022-09-02T11:03:00;24.80;99.90
64501;DHT22;50874;24.150;-110.320;2022-09-02T11:05:38;24.80;99.90
64501;DHT22;50874;24.150;-110.320;2022-09-02T11:08:16;24.90;99.90
64501;DHT22;50874;24.150;-110.320;2022-09-02T11:10:59;24.80;99.90
64501;DHT22;50874;24.150;-110.320;2022-09-02T11:16:28;25.00;99.90
64501;DHT22;50874;24.150;-110.320;2022-09-02T11:19:11;25.10;99.90
64501;DHT22;50874;24.150;-110.320;2022-09-02T11:27:45;25.50;99.90
64501;DHT22;50874;24.150;-110.320;2022-09-02T11:30:20;25.50;99.90
64501;DHT22;50874;24.150;-110.320;2022-09-02T11:35:37;25.40;99.90
64501;DHT22;50874;24.150;-110.320;2022-09-02T11:47:31;25.90;99.90
64501;DHT22;50874;24.150;-110.320;2022-09-02T11:55:08;26.00;99.90
64501;DHT22;50874;24.150;-110.320;2022-09-02T11:57:37;26.00;99.90
64501;DHT22;50874;24.150;-110.320;2022-09-02T12:00:11;25.90;99.90
64501;DHT22;50874;24.150;-110.320;2022-09-02T12:02:48;25.80;99.90
64501;DHT22;50874;24.150;-110.320;2022-09-02T12:08:02;25.50;99.90
64501;DHT22;50874;24.150;-110.320;2022-09-02T12:13:40;25.20;99.90
64501;DHT22;50874;24.150;-110.320;2022-09-02T12:18:45;25.10;99.90
64501;DHT22;50874;24.150;-110.320;2022-09-02T12:21:34;25.00;99.90
64501;DHT22;50874;24.150;-110.320;2022-09-02T12:31:50;25.20;99.90
64501;DHT22;50874;24.150;-110.320;2022-09-02T12:37:02;25.20;99.90
64501;DHT22;50874;24.150;-110.320;2022-09-02T12:53:06;25.10;99.90
64501;DHT22;50874;24.150;-110.320;2022-09-02T12:55:34;25.00;99.90
64501;DHT22;50874;24.150;-110.320;2022-09-02T12:58:10;25.10;99.90
64501;DHT22;50874;24.150;-110.320;2022-09-02T13:03:37;25.60;99.90
64501;DHT22;50874;24.150;-110.320;2022-09-02T13:06:33;25.50;99.90
64501;DHT22;50874;24.150;-110.320;2022-09-02T13:25:47;25.50;99.90
64501;DHT22;50874;24.150;-110.320;2022-09-02T13:28:48;25.60;99.90
64501;DHT22;50874;24.150;-110.320;2022-09-02T13:31:25;25.60;99.90
64501;DHT22;50874;24.150;-110.320;2022-09-02T13:34:09;25.50;99.90
64501;DHT22;50874;24.150;-110.320;2022-09-02T13:36:37;25.50;99.90
64501;DHT22;50874;24.150;-110.320;2022-09-02T13:41:39;25.60;99.90
64501;DHT22;50874;24.150;-110.320;2022-09-02T13:44:08;25.60;99.90
64501;DHT22;50874;24.150;-110.320;2022-09-02T13:46:45;25.60;99.90
64501;DHT22;50874;24.150;-110.320;2022-09-02T13:49:28;25.50;99.90
64501;DHT22;50874;24.150;-110.320;2022-09-02T13:51:57;25.50;99.90
64501;DHT22;50874;24.150;-110.320;2022-09-02T13:54:31;25.50;99.90
64501;DHT22;50874;24.150;-110.320;2022-09-02T13:57:01;25.40;99.90
64501;DHT22;50874;24.150;-110.320;2022-09-02T13:59:36;25.30;99.90
64501;DHT22;50874;24.150;-110.320;2022-09-02T14:02:27;25.30;99.90
64501;DHT22;50874;24.150;-110.320;2022-09-02T14:05:16;25.20;99.90
64501;DHT22;50874;24.150;-110.320;2022-09-02T14:07:49;25.20;99.90
64501;DHT22;50874;24.150;-110.320;2022-09-02T14:10:19;25.10;99.90
64501;DHT22;50874;24.150;-110.320;2022-09-02T14:12:47;25.00;99.90
64501;DHT22;50874;24.150;-110.320;2022-09-02T14:15:16;24.80;99.90
64501;DHT22;50874;24.150;-110.320;2022-09-02T14:21:25;24.80;99.90
64501;DHT22;50874;24.150;-110.320;2022-09-02T14:23:28;24.80;99.90
64501;DHT22;50874;24.150;-110.320;2022-09-02T14:25:58;24.80;99.90
64501;DHT22;50874;24.150;-110.320;2022-09-02T14:28:31;24.80;99.90
64501;DHT22;50874;24.150;-110.320;2022-09-02T14:31:03;24.80;99.90
64501;DHT22;50874;24.150;-110.320;2022-09-02T14:33:44;24.90;99.90
64501;DHT22;50874;24.150;-110.320;2022-09-02T14:41:31;24.80;99.90
64501;DHT22;50874;24.150;-110.320;2022-09-02T14:44:25;24.80;99.90
64501;DHT22;50874;24.150;-110.320;2022-09-02T14:47:05;24.80;99.90
64501;DHT22;50874;24.150;-110.320;2022-09-02T14:49:50;24.80;99.90
64501;DHT22;50874;24.150;-110.320;2022-09-02T14:52:26;24.80;99.90
64501;DHT22;50874;24.150;-110.320;2022-09-02T14:54:55;24.90;99.90
64501;DHT22;50874;24.150;-110.320;2022-09-02T14:57:34;24.90;99.90
64501;DHT22;50874;24.150;-110.320;2022-09-02T15:00:08;25.00;99.90
64501;DHT22;50874;24.150;-110.320;2022-09-02T15:02:39;24.90;99.90
64501;DHT22;50874;24.150;-110.320;2022-09-02T15:05:10;25.00;99.90
64501;DHT22;50874;24.150;-110.320;2022-09-02T15:07:39;24.90;99.90
64501;DHT22;50874;24.150;-110.320;2022-09-02T15:10:06;25.00;99.90
64501;DHT22;50874;24.150;-110.320;2022-09-02T15:12:49;25.00;99.90
64501;DHT22;50874;24.150;-110.320;2022-09-02T15:15:16;25.00;99.90
64501;DHT22;50874;24.150;-110.320;2022-09-02T15:17:42;25.00;99.90
64501;DHT22;50874;24.150;-110.320;2022-09-02T15:20:10;25.00;99.90
64501;DHT22;50874;24.150;-110.320;2022-09-02T15:22:36;25.00;99.90
64501;DHT22;50874;24.150;-110.320;2022-09-02T15:25:04;25.00;99.90
64501;DHT22;50874;24.150;-110.320;2022-09-02T15:27:33;25.00;99.90
64501;DHT22;50874;24.150;-110.320;2022-09-02T15:30:00;25.10;99.90
64501;DHT22;50874;24.150;-110.320;2022-09-02T15:32:27;25.10;99.90
64501;DHT22;50874;24.150;-110.320;2022-09-02T15:34:54;25.20;99.90
64501;DHT22;50874;24.150;-110.320;2022-09-02T15:37:20;25.20;99.90
64501;DHT22;50874;24.150;-110.320;2022-09-02T15:39:48;25.20;99.90
64501;DHT22;50874;24.150;-110.320;2022-09-02T15:42:15;25.20;99.90
64501;DHT22;50874;24.150;-110.320;2022-09-02T15:44:43;25.10;99.90
64501;DHT22;50874;24.150;-110.320;2022-09-02T15:47:10;25.10;99.90
64501;DHT22;50874;24.150;-110.320;2022-09-02T15:49:36;25.10;99.90
64501;DHT22;50874;24.150;-110.320;2022-09-02T15:52:03;25.10;99.90
64501;DHT22;50874;24.150;-110.320;2022-09-02T15:54:29;25.10;99.90
64501;DHT22;50874;24.150;-110.320;2022-09-02T15:56:57;25.20;99.90
64501;DHT22;50874;24.150;-110.320;2022-09-02T15:59:24;25.30;99.90
64501;DHT22;50874;24.150;-110.320;2022-09-02T16:01:54;25.30;99.90
64501;DHT22;50874;24.150;-110.320;2022-09-02T16:04:21;25.30;99.90
64501;DHT22;50874;24.150;-110.320;2022-09-02T16:06:48;25.30;99.90
64501;DHT22;50874;24.150;-110.320;2022-09-02T16:09:18;25.30;99.90
64501;DHT22;50874;24.150;-110.320;2022-09-02T16:11:49;25.30;99.90
64501;DHT22;50874;24.150;-110.320;2022-09-02T16:14:17;25.30;99.90
64501;DHT22;50874;24.150;-110.320;2022-09-02T16:16:44;25.40;99.90
64501;DHT22;50874;24.150;-110.320;2022-09-02T16:19:11;25.40;99.90
64501;DHT22;50874;24.150;-110.320;2022-09-02T16:21:38;25.50;99.90
64501;DHT22;50874;24.150;-110.320;2022-09-02T16:24:07;25.40;99.90
64501;DHT22;50874;24.150;-110.320;2022-09-02T16:26:38;25.50;99.90
64501;DHT22;50874;24.150;-110.320;2022-09-02T16:29:07;25.50;99.90
64501;DHT22;50874;24.150;-110.320;2022-09-02T16:31:36;25.50;99.90
64501;DHT22;50874;24.150;-110.320;2022-09-02T16:34:08;25.60;99.90
64501;DHT22;50874;24.150;-110.320;2022-09-02T16:36:37;25.60;99.90
64501;DHT22;50874;24.150;-110.320;2022-09-02T16:39:06;25.60;99.90
64501;DHT22;50874;24.150;-110.320;2022-09-02T16:41:36;25.60;99.90
64501;DHT22;50874;24.150;-110.320;2022-09-02T16:44:05;25.60;99.90
64501;DHT22;50874;24.150;-110.320;2022-09-02T16:46:33;25.60;99.90
64501;DHT22;50874;24.150;-110.320;2022-09-02T16:49:00;25.70;99.90
64501;DHT22;50874;24.150;-110.320;2022-09-02T16:51:27;25.70;99.90
64501;DHT22;50874;24.150;-110.320;2022-09-02T16:53:57;25.70;99.90
64501;DHT22;50874;24.150;-110.320;2022-09-02T16:56:24;25.70;99.90
64501;DHT22;50874;24.150;-110.320;2022-09-02T16:58:52;25.80;99.90
64501;DHT22;50874;24.150;-110.320;2022-09-02T17:01:19;25.90;99.90
64501;DHT22;50874;24.150;-110.320;2022-09-02T17:03:47;26.00;99.90
64501;DHT22;50874;24.150;-110.320;2022-09-02T17:06:14;26.10;99.90
64501;DHT22;50874;24.150;-110.320;2022-09-02T17:08:41;26.10;99.90
64501;DHT22;50874;24.150;-110.320;2022-09-02T17:11:21;26.20;99.90
64501;DHT22;50874;24.150;-110.320;2022-09-02T17:13:50;26.30;99.90